sensor_id;sensor_type;location;lat;lon;timestamp;pressure;altitude;pressure_sealevel;temperature;humidity
46081;BME280;31821;51.880;-0.518;2022-12-18T00:01:00;101284.91;;;1.15;59.95
46081;BME280;31821;51.880;-0.518;2022-12-18T00:03:28;101247.00;;;1.01;59.08
46081;BME280;31821;51.880;-0.518;2022-12-18T00:05:53;101242.78;;;1.05;57.53
46081;BME280;31821;51.880;-0.518;2022-12-18T00:08:19;101276.81;;;1.08;58.94
46081;BME280;31821;51.880;-0.518;2022-12-18T00:10:45;101304.72;;;0.97;59.54
46081;BME280;31821;51.880;-0.518;2022-12-18T00:13:11;101248.50;;;0.40;63.24
46081;BME280;31821;51.880;-0.518;2022-12-18T00:15:38;101290.56;;;0.88;61.44
46081;BME280;31821;51.880;-0.518;2022-12-18T00:18:04;101245.50;;;0.80;59.92
46081;BME280;31821;51.880;-0.518;2022-12-18T00:20:30;101295.25;;;1.06;59.41
46081;BME280;31821;51.880;-0.518;2022-12-18T00:22:56;101258.38;;;0.91;59.31
46081;BME280;31821;51.880;-0.518;2022-12-18T00:25:21;101243.72;;;0.67;58.48
46081;BME280;31821;51.880;-0.518;2022-12-18T00:27:47;101262.75;;;0.92;58.83
46081;BME280;31821;51.880;-0.518;2022-12-18T00:30:13;101300.44;;;1.07;58.58
46081;BME280;31821;51.880;-0.518;2022-12-18T00:32:39;101278.44;;;0.90;60.78
46081;BME280;31821;51.880;-0.518;2022-12-18T00:35:05;101285.91;;;0.95;58.98
46081;BME280;31821;51.880;-0.518;2022-12-18T00:37:33;101231.19;;;0.66;58.36
46081;BME280;31821;51.880;-0.518;2022-12-18T00:39:58;101273.28;;;0.82;58.98
46081;BME280;31821;51.880;-0.518;2022-12-18T00:42:24;101279.94;;;0.86;57.66
46081;BME280;31821;51.880;-0.518;2022-12-18T00:45:09;101287.16;;;0.67;58.67
46081;BME280;31821;51.880;-0.518;2022-12-18T00:47:35;101250.56;;;0.44;58.33
46081;BME280;31821;51.880;-0.518;2022-12-18T00:50:01;101292.59;;;0.67;57.78
46081;BME280;31821;51.880;-0.518;2022-12-18T00:52:26;101273.69;;;0.47;57.14
46081;BME280;31821;51.880;-0.518;2022-12-18T00:54:52;101220.91;;;0.11;59.24
46081;BME280;31821;51.880;-0.518;2022-12-18T00:57:17;101270.03;;;0.35;58.23
46081;BME280;31821;51.880;-0.518;2022-12-18T00:59:42;101235.72;;;0.15;57.56
46081;BME280;31821;51.880;-0.518;2022-12-18T01:02:08;101254.63;;;0.22;57.93
46081;BME280;31821;51.880;-0.518;2022-12-18T01:04:34;101246.41;;;-0.04;61.11
46081;BME280;31821;51.880;-0.518;2022-12-18T01:06:59;101251.38;;;0.13;59.53
46081;BME280;31821;51.880;-0.518;2022-12-18T01:09:26;101284.19;;;0.37;60.64
46081;BME280;31821;51.880;-0.518;2022-12-18T01:11:51;101235.91;;;0.13;61.78
46081;BME280;31821;51.880;-0.518;2022-12-18T01:14:17;101171.44;;;-0.23;62.73
46081;BME280;31821;51.880;-0.518;2022-12-18T01:16:42;101257.34;;;0.22;65.70
46081;BME280;31821;51.880;-0.518;2022-12-18T01:19:08;101241.94;;;0.22;65.98
46081;BME280;31821;51.880;-0.518;2022-12-18T01:21:33;101166.44;;;0.12;65.50
46081;BME280;31821;51.880;-0.518;2022-12-18T01:23:59;101255.88;;;0.90;64.52
46081;BME280;31821;51.880;-0.518;2022-12-18T01:26:25;101210.94;;;0.37;64.91
46081;BME280;31821;51.880;-0.518;2022-12-18T01:28:51;101192.91;;;0.17;67.67
46081;BME280;31821;51.880;-0.518;2022-12-18T01:31:20;101243.53;;;0.62;66.64
46081;BME280;31821;51.880;-0.518;2022-12-18T01:33:50;101225.66;;;0.22;67.99
46081;BME280;31821;51.880;-0.518;2022-12-18T01:36:27;101225.16;;;0.89;67.33
46081;BME280;31821;51.880;-0.518;2022-12-18T01:38:54;101230.59;;;0.89;66.68
46081;BME280;31821;51.880;-0.518;2022-12-18T01:41:25;101250.50;;;0.83;67.20
46081;BME280;31821;51.880;-0.518;2022-12-18T01:43:56;101194.09;;;0.60;66.93
46081;BME280;31821;51.880;-0.518;2022-12-18T01:46:23;101241.00;;;1.18;67.07
46081;BME280;31821;51.880;-0.518;2022-12-18T01:48:52;101134.91;;;0.43;67.62
46081;BME280;31821;51.880;-0.518;2022-12-18T01:51:19;101159.25;;;0.57;67.53
46081;BME280;31821;51.880;-0.518;2022-12-18T01:53:46;101204.94;;;0.60;68.72
46081;BME280;31821;51.880;-0.518;2022-12-18T01:56:16;101217.06;;;0.83;67.60
46081;BME280;31821;51.880;-0.518;2022-12-18T01:58:51;101232.31;;;1.09;67.37
46081;BME280;31821;51.880;-0.518;2022-12-18T02:01:21;101192.03;;;1.06;67.45
46081;BME280;31821;51.880;-0.518;2022-12-18T02:03:48;101239.59;;;1.34;65.62
46081;BME280;31821;51.880;-0.518;2022-12-18T02:06:30;101241.25;;;1.35;67.02
46081;BME280;31821;51.880;-0.518;2022-12-18T02:09:12;101220.44;;;1.66;65.47
46081;BME280;31821;51.880;-0.518;2022-12-18T02:14:37;101276.56;;;1.79;65.81
46081;BME280;31821;51.880;-0.518;2022-12-18T02:17:07;101264.00;;;1.59;65.29
46081;BME280;31821;51.880;-0.518;2022-12-18T02:19:59;101256.00;;;1.64;65.63
46081;BME280;31821;51.880;-0.518;2022-12-18T02:25:53;101256.31;;;1.93;64.61
46081;BME280;31821;51.880;-0.518;2022-12-18T02:28:26;101243.59;;;1.87;62.77
46081;BME280;31821;51.880;-0.518;2022-12-18T02:30:56;101264.06;;;1.34;65.80
46081;BME280;31821;51.880;-0.518;2022-12-18T02:33:27;101277.00;;;1.76;64.73
46081;BME280;31821;51.880;-0.518;2022-12-18T02:35:55;101222.91;;;1.30;64.94
46081;BME280;31821;51.880;-0.518;2022-12-18T02:38:23;101233.94;;;1.35;64.60
46081;BME280;31821;51.880;-0.518;2022-12-18T02:40:51;101203.47;;;1.08;64.34
46081;BME280;31821;51.880;-0.518;2022-12-18T02:43:18;101290.22;;;1.91;63.41
46081;BME280;31821;51.880;-0.518;2022-12-18T02:46:27;101274.63;;;2.16;61.54
46081;BME280;31821;51.880;-0.518;2022-12-18T02:49:01;101192.56;;;1.33;62.68
46081;BME280;31821;51.880;-0.518;2022-12-18T02:51:51;101286.44;;;1.54;64.24
46081;BME280;31821;51.880;-0.518;2022-12-18T02:57:36;101272.88;;;1.29;64.18
46081;BME280;31821;51.880;-0.518;2022-12-18T03:00:12;101270.63;;;1.01;65.64
46081;BME280;31821;51.880;-0.518;2022-12-18T03:02:51;101235.63;;;1.11;64.45
46081;BME280;31821;51.880;-0.518;2022-12-18T03:05:24;101238.91;;;1.20;63.43
46081;BME280;31821;51.880;-0.518;2022-12-18T03:07:57;101235.66;;;1.30;63.92
46081;BME280;31821;51.880;-0.518;2022-12-18T03:10:29;101207.00;;;0.90;65.12
46081;BME280;31821;51.880;-0.518;2022-12-18T03:13:20;101200.09;;;0.37;67.26
46081;BME280;31821;51.880;-0.518;2022-12-18T03:15:50;101178.63;;;0.60;66.80
46081;BME280;31821;51.880;-0.518;2022-12-18T03:18:30;101228.00;;;1.01;66.17
46081;BME280;31821;51.880;-0.518;2022-12-18T03:20:58;101202.91;;;0.55;67.77
46081;BME280;31821;51.880;-0.518;2022-12-18T03:23:29;101238.78;;;1.08;67.24
46081;BME280;31821;51.880;-0.518;2022-12-18T03:26:00;101184.06;;;0.86;66.87
46081;BME280;31821;51.880;-0.518;2022-12-18T03:28:29;101128.09;;;0.59;65.97
46081;BME280;31821;51.880;-0.518;2022-12-18T03:30:58;101169.72;;;0.53;66.94
46081;BME280;31821;51.880;-0.518;2022-12-18T03:33:30;101201.81;;;0.82;66.77
46081;BME280;31821;51.880;-0.518;2022-12-18T03:35:57;101180.69;;;0.65;67.92
46081;BME280;31821;51.880;-0.518;2022-12-18T03:38:23;101214.25;;;0.96;66.21
46081;BME280;31821;51.880;-0.518;2022-12-18T03:40:53;101169.31;;;1.00;64.90
46081;BME280;31821;51.880;-0.518;2022-12-18T03:46:07;101150.03;;;0.58;66.80
46081;BME280;31821;51.880;-0.518;2022-12-18T03:48:40;101173.31;;;1.16;64.77
46081;BME280;31821;51.880;-0.518;2022-12-18T03:51:11;101199.38;;;0.99;66.14
46081;BME280;31821;51.880;-0.518;2022-12-18T03:53:59;101204.22;;;1.41;64.21
46081;BME280;31821;51.880;-0.518;2022-12-18T03:56:29;101200.53;;;0.91;66.25
46081;BME280;31821;51.880;-0.518;2022-12-18T03:58:57;101194.38;;;1.21;64.28
46081;BME280;31821;51.880;-0.518;2022-12-18T04:01:30;101184.38;;;0.96;66.05
46081;BME280;31821;51.880;-0.518;2022-12-18T04:03:59;101152.25;;;1.30;63.59
46081;BME280;31821;51.880;-0.518;2022-12-18T04:06:26;101182.75;;;1.69;63.27
46081;BME280;31821;51.880;-0.518;2022-12-18T04:08:53;101159.19;;;1.26;63.65
46081;BME280;31821;51.880;-0.518;2022-12-18T04:11:19;101166.72;;;1.43;63.26
46081;BME280;31821;51.880;-0.518;2022-12-18T04:13:44;101146.13;;;1.53;62.44
46081;BME280;31821;51.880;-0.518;2022-12-18T04:16:10;101102.72;;;1.47;61.99
46081;BME280;31821;51.880;-0.518;2022-12-18T04:18:35;101118.81;;;1.30;61.97
46081;BME280;31821;51.880;-0.518;2022-12-18T04:21:02;101116.47;;;1.33;61.42
46081;BME280;31821;51.880;-0.518;2022-12-18T04:23:27;101130.44;;;1.00;64.25
46081;BME280;31821;51.880;-0.518;2022-12-18T04:25:53;101109.41;;;0.70;63.94
46081;BME280;31821;51.880;-0.518;2022-12-18T04:28:19;101109.75;;;0.80;64.97
46081;BME280;31821;51.880;-0.518;2022-12-18T04:30:45;101096.81;;;0.57;64.83
46081;BME280;31821;51.880;-0.518;2022-12-18T04:33:13;101122.50;;;0.98;64.65
46081;BME280;31821;51.880;-0.518;2022-12-18T04:35:42;101113.63;;;1.10;63.76
46081;BME280;31821;51.880;-0.518;2022-12-18T04:38:08;101126.34;;;1.28;63.40
46081;BME280;31821;51.880;-0.518;2022-12-18T04:40:36;101146.91;;;1.42;63.94
46081;BME280;31821;51.880;-0.518;2022-12-18T04:43:01;101135.88;;;1.55;63.22
46081;BME280;31821;51.880;-0.518;2022-12-18T04:45:27;101140.41;;;1.74;61.44
46081;BME280;31821;51.880;-0.518;2022-12-18T04:47:52;101071.19;;;1.27;61.84
46081;BME280;31821;51.880;-0.518;2022-12-18T04:50:18;101111.31;;;1.62;61.60
46081;BME280;31821;51.880;-0.518;2022-12-18T04:52:43;101123.34;;;0.99;64.58
46081;BME280;31821;51.880;-0.518;2022-12-18T04:55:09;101131.47;;;0.80;66.75
46081;BME280;31821;51.880;-0.518;2022-12-18T04:57:35;101103.34;;;0.49;68.06
46081;BME280;31821;51.880;-0.518;2022-12-18T05:00:00;101095.78;;;0.76;67.43
46081;BME280;31821;51.880;-0.518;2022-12-18T05:02:26;101079.28;;;0.97;66.43
46081;BME280;31821;51.880;-0.518;2022-12-18T05:04:52;101082.38;;;1.00;65.58
46081;BME280;31821;51.880;-0.518;2022-12-18T05:07:18;101063.28;;;0.70;65.34
46081;BME280;31821;51.880;-0.518;2022-12-18T05:09:43;101032.25;;;0.40;67.30
46081;BME280;31821;51.880;-0.518;2022-12-18T05:12:09;101054.16;;;1.01;66.91
46081;BME280;31821;51.880;-0.518;2022-12-18T05:14:34;101019.78;;;0.58;68.31
46081;BME280;31821;51.880;-0.518;2022-12-18T05:17:00;101073.75;;;1.03;67.07
46081;BME280;31821;51.880;-0.518;2022-12-18T05:19:25;101030.31;;;1.22;65.02
46081;BME280;31821;51.880;-0.518;2022-12-18T05:21:51;101010.50;;;0.84;65.50
46081;BME280;31821;51.880;-0.518;2022-12-18T05:24:16;101012.38;;;1.33;63.99
46081;BME280;31821;51.880;-0.518;2022-12-18T05:26:41;101062.59;;;1.30;65.21
46081;BME280;31821;51.880;-0.518;2022-12-18T05:29:07;101016.13;;;0.64;67.05
46081;BME280;31821;51.880;-0.518;2022-12-18T05:31:32;101026.97;;;0.45;67.25
46081;BME280;31821;51.880;-0.518;2022-12-18T05:33:58;101018.47;;;0.98;66.35
46081;BME280;31821;51.880;-0.518;2022-12-18T05:36:23;101008.75;;;0.90;65.07
46081;BME280;31821;51.880;-0.518;2022-12-18T05:38:49;101008.06;;;0.57;68.03
46081;BME280;31821;51.880;-0.518;2022-12-18T05:41:15;101024.38;;;0.76;66.29
46081;BME280;31821;51.880;-0.518;2022-12-18T05:43:40;101078.63;;;1.01;65.95
46081;BME280;31821;51.880;-0.518;2022-12-18T05:46:08;101027.47;;;0.80;66.13
46081;BME280;31821;51.880;-0.518;2022-12-18T05:48:34;101060.28;;;0.97;65.69
46081;BME280;31821;51.880;-0.518;2022-12-18T05:51:08;101001.06;;;0.68;66.41
46081;BME280;31821;51.880;-0.518;2022-12-18T05:53:35;101018.84;;;1.20;66.37
46081;BME280;31821;51.880;-0.518;2022-12-18T05:56:05;100988.69;;;0.72;65.46
46081;BME280;31821;51.880;-0.518;2022-12-18T05:58:32;101035.66;;;1.10;65.54
46081;BME280;31821;51.880;-0.518;2022-12-18T06:00:58;101027.78;;;0.90;66.53
46081;BME280;31821;51.880;-0.518;2022-12-18T06:03:30;101030.06;;;1.23;65.51
46081;BME280;31821;51.880;-0.518;2022-12-18T06:05:56;100966.16;;;0.72;67.47
46081;BME280;31821;51.880;-0.518;2022-12-18T06:08:21;100974.88;;;0.92;65.43
46081;BME280;31821;51.880;-0.518;2022-12-18T06:10:51;100975.50;;;0.76;67.23
46081;BME280;31821;51.880;-0.518;2022-12-18T06:13:17;100941.03;;;0.76;67.33
46081;BME280;31821;51.880;-0.518;2022-12-18T06:15:43;101033.28;;;0.83;67.88
46081;BME280;31821;51.880;-0.518;2022-12-18T06:18:08;101017.66;;;1.28;67.16
46081;BME280;31821;51.880;-0.518;2022-12-18T06:20:34;100956.41;;;0.83;66.17
46081;BME280;31821;51.880;-0.518;2022-12-18T06:23:01;100975.50;;;1.25;66.07
46081;BME280;31821;51.880;-0.518;2022-12-18T06:25:27;100928.75;;;1.35;66.06
46081;BME280;31821;51.880;-0.518;2022-12-18T06:27:52;100975.00;;;0.98;67.89
46081;BME280;31821;51.880;-0.518;2022-12-18T06:30:19;100951.44;;;1.10;66.95
46081;BME280;31821;51.880;-0.518;2022-12-18T06:32:45;100984.06;;;1.10;67.14
46081;BME280;31821;51.880;-0.518;2022-12-18T06:35:10;100979.19;;;1.73;65.79
46081;BME280;31821;51.880;-0.518;2022-12-18T06:37:36;100971.56;;;1.63;66.74
46081;BME280;31821;51.880;-0.518;2022-12-18T06:40:01;100938.84;;;1.58;66.79
46081;BME280;31821;51.880;-0.518;2022-12-18T06:42:28;100957.06;;;1.69;66.84
46081;BME280;31821;51.880;-0.518;2022-12-18T06:44:54;100951.84;;;1.68;65.67
46081;BME280;31821;51.880;-0.518;2022-12-18T06:47:19;100899.75;;;1.17;66.41
46081;BME280;31821;51.880;-0.518;2022-12-18T06:49:45;100980.66;;;1.45;67.33
46081;BME280;31821;51.880;-0.518;2022-12-18T06:52:10;100988.44;;;1.42;67.18
46081;BME280;31821;51.880;-0.518;2022-12-18T06:54:36;100918.59;;;1.00;68.84
46081;BME280;31821;51.880;-0.518;2022-12-18T06:57:01;100882.06;;;1.26;67.61
46081;BME280;31821;51.880;-0.518;2022-12-18T06:59:27;100944.78;;;1.91;65.81
46081;BME280;31821;51.880;-0.518;2022-12-18T07:01:53;100951.50;;;1.64;66.40
46081;BME280;31821;51.880;-0.518;2022-12-18T07:04:18;100959.78;;;1.81;66.74
46081;BME280;31821;51.880;-0.518;2022-12-18T07:06:44;100957.22;;;1.86;66.00
46081;BME280;31821;51.880;-0.518;2022-12-18T07:09:09;100941.00;;;1.80;66.32
46081;BME280;31821;51.880;-0.518;2022-12-18T07:11:35;100850.69;;;1.00;66.54
46081;BME280;31821;51.880;-0.518;2022-12-18T07:14:00;100958.88;;;1.88;67.07
46081;BME280;31821;51.880;-0.518;2022-12-18T07:16:26;100922.69;;;1.21;67.58
46081;BME280;31821;51.880;-0.518;2022-12-18T07:18:56;100954.00;;;1.90;67.39
46081;BME280;31821;51.880;-0.518;2022-12-18T07:21:23;100931.78;;;1.81;66.57
46081;BME280;31821;51.880;-0.518;2022-12-18T07:23:49;100893.75;;;1.27;68.26
46081;BME280;31821;51.880;-0.518;2022-12-18T07:26:17;100883.41;;;1.47;66.73
46081;BME280;31821;51.880;-0.518;2022-12-18T07:28:43;100871.69;;;1.94;65.45
46081;BME280;31821;51.880;-0.518;2022-12-18T07:31:11;100911.06;;;1.68;67.98
46081;BME280;31821;51.880;-0.518;2022-12-18T07:33:37;100883.06;;;2.03;66.07
46081;BME280;31821;51.880;-0.518;2022-12-18T07:36:04;100886.81;;;2.26;65.97
46081;BME280;31821;51.880;-0.518;2022-12-18T07:38:31;100865.47;;;1.82;67.14
46081;BME280;31821;51.880;-0.518;2022-12-18T07:41:01;100893.41;;;2.30;66.04
46081;BME280;31821;51.880;-0.518;2022-12-18T07:43:27;100865.97;;;2.31;65.30
46081;BME280;31821;51.880;-0.518;2022-12-18T07:45:52;100869.81;;;2.19;66.14
46081;BME280;31821;51.880;-0.518;2022-12-18T07:48:18;100807.41;;;1.76;66.57
46081;BME280;31821;51.880;-0.518;2022-12-18T07:50:43;100863.25;;;2.31;65.33
46081;BME280;31821;51.880;-0.518;2022-12-18T07:53:09;100830.06;;;2.17;65.58
46081;BME280;31821;51.880;-0.518;2022-12-18T07:55:34;100850.09;;;1.88;65.95
46081;BME280;31821;51.880;-0.518;2022-12-18T07:58:03;100859.63;;;2.55;65.01
46081;BME280;31821;51.880;-0.518;2022-12-18T08:00:30;100796.41;;;1.71;66.64
46081;BME280;31821;51.880;-0.518;2022-12-18T08:02:55;100850.56;;;1.84;65.41
46081;BME280;31821;51.880;-0.518;2022-12-18T08:05:21;100856.91;;;2.55;64.95
46081;BME280;31821;51.880;-0.518;2022-12-18T08:07:46;100906.00;;;2.60;64.95
46081;BME280;31821;51.880;-0.518;2022-12-18T08:10:12;100808.56;;;1.92;65.20
46081;BME280;31821;51.880;-0.518;2022-12-18T08:12:38;100907.47;;;2.91;63.56
46081;BME280;31821;51.880;-0.518;2022-12-18T08:15:04;100894.50;;;2.70;63.45
46081;BME280;31821;51.880;-0.518;2022-12-18T08:17:29;100919.50;;;2.95;63.80
46081;BME280;31821;51.880;-0.518;2022-12-18T08:19:55;100856.78;;;2.90;62.63
46081;BME280;31821;51.880;-0.518;2022-12-18T08:22:20;100922.28;;;3.13;63.13
46081;BME280;31821;51.880;-0.518;2022-12-18T08:24:46;100890.38;;;2.67;63.41
46081;BME280;31821;51.880;-0.518;2022-12-18T08:27:12;100908.53;;;2.49;64.50
46081;BME280;31821;51.880;-0.518;2022-12-18T08:29:37;100897.16;;;2.53;64.76
46081;BME280;31821;51.880;-0.518;2022-12-18T08:32:03;100890.84;;;2.11;64.98
46081;BME280;31821;51.880;-0.518;2022-12-18T08:34:29;100867.97;;;2.36;65.53
46081;BME280;31821;51.880;-0.518;2022-12-18T08:36:54;100872.38;;;2.25;65.90
46081;BME280;31821;51.880;-0.518;2022-12-18T08:39:20;100821.88;;;2.17;65.10
46081;BME280;31821;51.880;-0.518;2022-12-18T08:41:45;100917.81;;;2.77;63.87
46081;BME280;31821;51.880;-0.518;2022-12-18T08:44:31;100911.16;;;3.31;63.21
46081;BME280;31821;51.880;-0.518;2022-12-18T08:47:06;100861.00;;;2.98;63.33
46081;BME280;31821;51.880;-0.518;2022-12-18T08:49:33;100883.63;;;2.70;63.90
46081;BME280;31821;51.880;-0.518;2022-12-18T08:51:58;100848.94;;;2.65;62.67
46081;BME280;31821;51.880;-0.518;2022-12-18T08:54:25;100930.06;;;3.21;63.07
46081;BME280;31821;51.880;-0.518;2022-12-18T08:56:51;100840.03;;;2.41;64.42
46081;BME280;31821;51.880;-0.518;2022-12-18T08:59:17;100870.28;;;3.14;62.49
46081;BME280;31821;51.880;-0.518;2022-12-18T09:01:43;100918.25;;;3.15;62.89
46081;BME280;31821;51.880;-0.518;2022-12-18T09:04:09;100926.44;;;3.15;62.61
46081;BME280;31821;51.880;-0.518;2022-12-18T09:06:35;100928.25;;;3.09;62.85
46081;BME280;31821;51.880;-0.518;2022-12-18T09:09:02;100925.72;;;3.37;63.10
46081;BME280;31821;51.880;-0.518;2022-12-18T09:11:30;100925.31;;;2.58;64.57
46081;BME280;31821;51.880;-0.518;2022-12-18T09:13:57;100915.09;;;2.77;64.42
46081;BME280;31821;51.880;-0.518;2022-12-18T09:16:24;100935.69;;;2.73;65.65
46081;BME280;31821;51.880;-0.518;2022-12-18T09:18:49;100856.41;;;2.29;65.29
46081;BME280;31821;51.880;-0.518;2022-12-18T09:21:17;100911.88;;;2.40;65.25
46081;BME280;31821;51.880;-0.518;2022-12-18T09:23:44;100898.00;;;2.53;66.00
46081;BME280;31821;51.880;-0.518;2022-12-18T09:26:14;100799.09;;;2.36;64.37
46081;BME280;31821;51.880;-0.518;2022-12-18T09:28:39;100877.16;;;2.88;63.50
46081;BME280;31821;51.880;-0.518;2022-12-18T09:31:06;100927.53;;;3.48;62.78
46081;BME280;31821;51.880;-0.518;2022-12-18T09:33:34;100870.38;;;3.36;62.06
46081;BME280;31821;51.880;-0.518;2022-12-18T09:36:01;100889.13;;;3.33;62.09
46081;BME280;31821;51.880;-0.518;2022-12-18T09:38:27;100918.69;;;3.92;60.22
46081;BME280;31821;51.880;-0.518;2022-12-18T09:40:59;100891.50;;;3.80;60.38
46081;BME280;31821;51.880;-0.518;2022-12-18T09:43:39;100912.44;;;3.75;61.09
46081;BME280;31821;51.880;-0.518;2022-12-18T09:46:10;100867.88;;;3.18;61.79
46081;BME280;31821;51.880;-0.518;2022-12-18T09:48:42;100912.16;;;3.93;60.55
46081;BME280;31821;51.880;-0.518;2022-12-18T09:51:20;100900.22;;;3.43;61.70
46081;BME280;31821;51.880;-0.518;2022-12-18T09:53:53;100930.22;;;3.60;61.83
46081;BME280;31821;51.880;-0.518;2022-12-18T09:56:22;100909.88;;;3.51;62.32
46081;BME280;31821;51.880;-0.518;2022-12-18T09:59:02;100878.59;;;3.07;63.12
46081;BME280;31821;51.880;-0.518;2022-12-18T10:01:29;100925.19;;;3.23;63.41
46081;BME280;31821;51.880;-0.518;2022-12-18T10:03:56;100826.25;;;2.19;64.35
46081;BME280;31821;51.880;-0.518;2022-12-18T10:06:46;100896.75;;;3.02;63.66
46081;BME280;31821;51.880;-0.518;2022-12-18T10:09:27;100909.34;;;3.20;63.94
46081;BME280;31821;51.880;-0.518;2022-12-18T10:17:37;100852.72;;;2.64;64.19
46081;BME280;31821;51.880;-0.518;2022-12-18T10:20:33;100863.41;;;2.94;64.12
46081;BME280;31821;51.880;-0.518;2022-12-18T10:25:50;100863.66;;;3.10;63.53
46081;BME280;31821;51.880;-0.518;2022-12-18T10:28:19;100796.72;;;2.68;62.92
46081;BME280;31821;51.880;-0.518;2022-12-18T10:30:45;100834.13;;;3.19;63.40
46081;BME280;31821;51.880;-0.518;2022-12-18T10:33:23;100740.31;;;2.52;63.84
46081;BME280;31821;51.880;-0.518;2022-12-18T10:35:52;100802.88;;;3.44;62.94
46081;BME280;31821;51.880;-0.518;2022-12-18T10:40:51;100766.06;;;2.90;63.11
46081;BME280;31821;51.880;-0.518;2022-12-18T10:43:43;100797.66;;;3.08;64.17
46081;BME280;31821;51.880;-0.518;2022-12-18T10:48:40;100727.16;;;3.11;63.73
46081;BME280;31821;51.880;-0.518;2022-12-18T10:51:33;100763.66;;;2.93;64.23
46081;BME280;31821;51.880;-0.518;2022-12-18T10:54:02;100737.00;;;2.32;65.55
46081;BME280;31821;51.880;-0.518;2022-12-18T10:56:30;100778.44;;;3.15;64.32
46081;BME280;31821;51.880;-0.518;2022-12-18T10:59:07;100736.59;;;2.87;64.70
46081;BME280;31821;51.880;-0.518;2022-12-18T11:01:56;100758.88;;;3.18;64.08
46081;BME280;31821;51.880;-0.518;2022-12-18T11:04:28;100757.81;;;3.19;64.66
46081;BME280;31821;51.880;-0.518;2022-12-18T11:06:58;100748.28;;;3.38;64.46
46081;BME280;31821;51.880;-0.518;2022-12-18T11:09:28;100737.44;;;3.44;64.77
46081;BME280;31821;51.880;-0.518;2022-12-18T11:11:56;100738.97;;;3.00;65.98
46081;BME280;31821;51.880;-0.518;2022-12-18T11:14:25;100701.59;;;2.61;66.60
46081;BME280;31821;51.880;-0.518;2022-12-18T11:16:52;100717.84;;;3.07;65.65
46081;BME280;31821;51.880;-0.518;2022-12-18T11:21:47;100658.81;;;2.62;66.24
46081;BME280;31821;51.880;-0.518;2022-12-18T11:26:55;100656.25;;;2.55;66.12
46081;BME280;31821;51.880;-0.518;2022-12-18T11:29:37;100708.28;;;2.88;66.40
46081;BME280;31821;51.880;-0.518;2022-12-18T11:32:23;100673.19;;;2.91;65.84
46081;BME280;31821;51.880;-0.518;2022-12-18T11:34:59;100723.28;;;2.90;65.93
46081;BME280;31821;51.880;-0.518;2022-12-18T11:37:26;100667.59;;;2.81;65.77
46081;BME280;31821;51.880;-0.518;2022-12-18T11:40:03;100678.38;;;2.76;65.99
46081;BME280;31821;51.880;-0.518;2022-12-18T11:42:39;100687.75;;;3.19;65.13
46081;BME280;31821;51.880;-0.518;2022-12-18T11:47:49;100680.97;;;3.22;65.99
46081;BME280;31821;51.880;-0.518;2022-12-18T11:50:24;100691.94;;;3.05;66.19
46081;BME280;31821;51.880;-0.518;2022-12-18T11:52:50;100689.19;;;3.88;63.61
46081;BME280;31821;51.880;-0.518;2022-12-18T11:55:23;100645.94;;;3.31;64.30
46081;BME280;31821;51.880;-0.518;2022-12-18T11:58:09;100670.34;;;3.20;65.76
46081;BME280;31821;51.880;-0.518;2022-12-18T12:00:47;100632.06;;;3.32;64.50
46081;BME280;31821;51.880;-0.518;2022-12-18T12:03:24;100630.34;;;3.70;64.15
46081;BME280;31821;51.880;-0.518;2022-12-18T12:11:41;100588.97;;;3.29;64.55
46081;BME280;31821;51.880;-0.518;2022-12-18T12:17:09;100597.44;;;3.10;65.87
46081;BME280;31821;51.880;-0.518;2022-12-18T12:25:52;100587.06;;;3.30;65.69
46081;BME280;31821;51.880;-0.518;2022-12-18T12:39:40;100537.25;;;3.62;65.47
46081;BME280;31821;51.880;-0.518;2022-12-18T12:42:35;100538.06;;;3.89;64.99
46081;BME280;31821;51.880;-0.518;2022-12-18T12:45:28;100538.59;;;3.59;64.89
46081;BME280;31821;51.880;-0.518;2022-12-18T12:47:56;100533.16;;;3.59;65.63
46081;BME280;31821;51.880;-0.518;2022-12-18T12:50:23;100508.00;;;3.30;66.41
46081;BME280;31821;51.880;-0.518;2022-12-18T12:52:52;100529.50;;;3.26;68.00
46081;BME280;31821;51.880;-0.518;2022-12-18T12:55:28;100511.16;;;3.44;67.03
46081;BME280;31821;51.880;-0.518;2022-12-18T13:00:20;100537.72;;;3.31;67.75
46081;BME280;31821;51.880;-0.518;2022-12-18T13:03:06;100539.22;;;3.99;66.46
46081;BME280;31821;51.880;-0.518;2022-12-18T13:05:54;100520.88;;;3.34;67.71
46081;BME280;31821;51.880;-0.518;2022-12-18T13:08:26;100464.91;;;2.99;68.07
46081;BME280;31821;51.880;-0.518;2022-12-18T13:10:54;100516.34;;;3.72;67.51
46081;BME280;31821;51.880;-0.518;2022-12-18T13:13:49;100500.53;;;3.69;67.68
46081;BME280;31821;51.880;-0.518;2022-12-18T13:16:18;100418.81;;;3.20;67.65
46081;BME280;31821;51.880;-0.518;2022-12-18T13:18:57;100465.38;;;3.46;67.53
46081;BME280;31821;51.880;-0.518;2022-12-18T13:23:52;100399.38;;;3.11;68.07
46081;BME280;31821;51.880;-0.518;2022-12-18T13:31:13;100421.25;;;3.49;68.42
46081;BME280;31821;51.880;-0.518;2022-12-18T13:33:44;100462.53;;;3.95;68.23
46081;BME280;31821;51.880;-0.518;2022-12-18T13:41:40;100437.63;;;3.81;69.28
46081;BME280;31821;51.880;-0.518;2022-12-18T13:44:33;100444.59;;;4.04;68.30
46081;BME280;31821;51.880;-0.518;2022-12-18T13:47:01;100442.78;;;3.83;67.97
46081;BME280;31821;51.880;-0.518;2022-12-18T13:49:40;100423.78;;;3.93;69.94
46081;BME280;31821;51.880;-0.518;2022-12-18T13:54:55;100428.56;;;4.13;67.79
46081;BME280;31821;51.880;-0.518;2022-12-18T13:57:33;100422.88;;;4.20;68.49
46081;BME280;31821;51.880;-0.518;2022-12-18T14:02:48;100396.28;;;4.48;67.60
46081;BME280;31821;51.880;-0.518;2022-12-18T14:05:35;100341.56;;;4.22;67.46
46081;BME280;31821;51.880;-0.518;2022-12-18T14:08:08;100284.03;;;3.38;69.52
46081;BME280;31821;51.880;-0.518;2022-12-18T14:10:35;100379.94;;;4.05;68.83
46081;BME280;31821;51.880;-0.518;2022-12-18T14:13:06;100390.22;;;3.93;70.61
46081;BME280;31821;51.880;-0.518;2022-12-18T14:15:41;100380.56;;;3.75;70.28
46081;BME280;31821;51.880;-0.518;2022-12-18T14:18:34;100330.81;;;3.62;70.60
46081;BME280;31821;51.880;-0.518;2022-12-18T14:21:03;100383.47;;;4.06;70.30
46081;BME280;31821;51.880;-0.518;2022-12-18T14:25:58;100373.22;;;3.75;72.08